KLAM

Los Alamos Airport

Los Alamos, New Mexico, USA
METAR KLAM 150315Z AUTO 06006KT 10SM -RA BKN100 OVC120 22/07 A3025 RMK AO2 P0001 T02200071
Observed Flight Rules
Aug-15 @ 03:15 UTC (21 minutes ago) Visual Flight Rules
Wind Visibility Clouds Conditions
60° at 6 knots 10 miles
  • Broken at 10,000' AGL
  • Overcast at 12,000' AGL
  • Light Rain
Temperatures Readings Precipitation
Current 22°C / 72°F
Dewpoint 7°C / 45°F
Humidity 38%
Altimeter 30.25" Hg
Pressure 1024 hPa
Elevation 2179
Current Rain 0.01
METAR KLAM 150315Z AUTO 06006KT 10SM -RA BKN100 OVC120 22/07 A3025 RMK AO2 P0001 T02200071
Observed Flight Rules
Aug-15 @ 03:15 UTC
(21 minutes ago)
VFR
Wind Visibility
60° at 6 knots 10 miles
Clouds
  • Broken at 10,000' AGL
  • Overcast at 12,000' AGL
Conditions
  • Light Rain
Temperature Dewpoint
22°C / 72°F 7°C / 45°F
Humidity Altimeter Pressure
38% 30.25" Hg 1024 hPa
Current Rain
0.01